Warsaw, NY

8:29 AM EDT on August 28, 2016 (GMT -0400)
| | Change Station

Elev -9999 ft 0.00 °N, 0.00 °E | Updated

Partly Cloudy
Partly Cloudy
80 °F
Feels Like 84 °F
N
10
Wind Variable Wind from WSW
Gusts mph

Today
High -- | Low -- °F
--% Chance of Precip.
Yesterday
High -- | Low -- °F
Precip. -- in
Pressure 30.20 in
Visibility 10.0 miles
Clouds Few 8500 ft
Heat Index 84 °F
Dew Point 69 °F
Humidity 69%
Rainfall --
Snow Depth Not available.
6:33 AM 7:52 PM
Waning Crescent, 16% visible
METAR KDSV 281154Z AUTO 12007KT 10SM FEW085 23/18 A3019 RMK AO2 SLP226 T02330183 10239 20194 53005
Pressure 30.20 in
Visibility 10.0 miles
Clouds Few 8500 ft
Heat Index 84 °F
Dew Point 69 °F
Humidity 69%
Rainfall --
Snow Depth Not available.
6:33 AM 7:52 PM
Waning Crescent, 16% visible
METAR KDSV 281154Z AUTO 12007KT 10SM FEW085 23/18 A3019 RMK AO2 SLP226 T02330183 10239 20194 53005

10-Day Weather Forecast

Almanac

Astronomy

Aug. 28, 2016 Rise Set
Actual Time
Civil Twilight
Nautical Twilight
Astronomical Twilight
Moon
Length of Visible Light
Length of Day
Tomorrow will be .
, % of the Moon is Illuminated

Today's Extremes

State Highs State Lows

Community

WunderPhotos

Upload Photos

1,935,557 photos uploaded!

WunderBlog® & News

Nearby

Air Quality

  Air Quality AQ Index Pollutant
Not available.

Snow Depth

Station Depth Elevation

Earthquake Activity

City Distance Mag. Time & Date
Minimum magnitude displayed is 2.5.

Coastal Water Temperatures

Place Temperature

Stations

Nearby Weather Stations

Station Location Temp. Windchill Dew Point Humidity Wind Precip. Elev Updated Type
                   

Watches & Warnings

There are currently no watches in effect.